sensor_id;sensor_type;location;lat;lon;timestamp;pressure;altitude;pressure_sealevel;temperature;humidity
61345;BME280;47216;42.656;23.232;2023-01-28T00:00:34;93227.38;;;0.52;74.27
61345;BME280;47216;42.656;23.232;2023-01-28T00:03:01;93226.38;;;0.53;74.49
61345;BME280;47216;42.656;23.232;2023-01-28T00:05:27;93227.38;;;0.45;74.93
61345;BME280;47216;42.656;23.232;2023-01-28T00:07:55;93226.63;;;0.38;75.23
61345;BME280;47216;42.656;23.232;2023-01-28T00:10:23;93235.50;;;0.42;75.27
61345;BME280;47216;42.656;23.232;2023-01-28T00:12:50;93237.25;;;0.41;75.68
61345;BME280;47216;42.656;23.232;2023-01-28T00:15:16;93245.16;;;0.40;75.77
61345;BME280;47216;42.656;23.232;2023-01-28T00:17:43;93255.34;;;0.60;75.07
61345;BME280;47216;42.656;23.232;2023-01-28T00:20:10;93243.97;;;0.49;75.50
61345;BME280;47216;42.656;23.232;2023-01-28T00:22:36;93253.38;;;0.62;75.06
61345;BME280;47216;42.656;23.232;2023-01-28T00:25:03;93254.97;;;0.70;74.60
61345;BME280;47216;42.656;23.232;2023-01-28T00:27:31;93258.06;;;0.78;74.34
61345;BME280;47216;42.656;23.232;2023-01-28T00:29:58;93256.72;;;0.69;74.17
61345;BME280;47216;42.656;23.232;2023-01-28T00:32:24;93256.53;;;0.71;74.23
61345;BME280;47216;42.656;23.232;2023-01-28T00:34:51;93262.50;;;0.58;74.65
61345;BME280;47216;42.656;23.232;2023-01-28T00:37:17;93259.72;;;0.53;74.56
61345;BME280;47216;42.656;23.232;2023-01-28T00:39:44;93268.81;;;0.49;75.17
61345;BME280;47216;42.656;23.232;2023-01-28T00:42:11;93264.81;;;0.66;75.15
61345;BME280;47216;42.656;23.232;2023-01-28T00:44:39;93270.75;;;0.60;74.44
61345;BME280;47216;42.656;23.232;2023-01-28T00:47:05;93267.03;;;0.56;74.45
61345;BME280;47216;42.656;23.232;2023-01-28T00:49:32;93272.94;;;0.63;74.34
61345;BME280;47216;42.656;23.232;2023-01-28T00:51:58;93267.41;;;0.66;74.68
61345;BME280;47216;42.656;23.232;2023-01-28T00:54:25;93267.19;;;0.74;74.40
61345;BME280;47216;42.656;23.232;2023-01-28T00:56:51;93268.34;;;0.78;74.38
61345;BME280;47216;42.656;23.232;2023-01-28T00:59:18;93273.66;;;0.90;74.45
61345;BME280;47216;42.656;23.232;2023-01-28T01:01:46;93275.38;;;1.03;73.73
61345;BME280;47216;42.656;23.232;2023-01-28T01:04:13;93276.91;;;1.17;73.29
61345;BME280;47216;42.656;23.232;2023-01-28T01:06:50;93274.50;;;1.29;73.27
61345;BME280;47216;42.656;23.232;2023-01-28T01:09:17;93276.06;;;1.37;72.93
61345;BME280;47216;42.656;23.232;2023-01-28T01:11:43;93268.13;;;1.38;72.45
61345;BME280;47216;42.656;23.232;2023-01-28T01:14:10;93272.88;;;1.41;72.25
61345;BME280;47216;42.656;23.232;2023-01-28T01:16:36;93274.41;;;1.49;71.87
61345;BME280;47216;42.656;23.232;2023-01-28T01:19:04;93273.41;;;1.50;72.02
61345;BME280;47216;42.656;23.232;2023-01-28T01:21:33;93280.28;;;1.56;71.77
61345;BME280;47216;42.656;23.232;2023-01-28T01:23:59;93279.88;;;1.59;71.35
61345;BME280;47216;42.656;23.232;2023-01-28T01:26:26;93283.63;;;1.63;71.54
61345;BME280;47216;42.656;23.232;2023-01-28T01:28:52;93282.97;;;1.75;71.19
61345;BME280;47216;42.656;23.232;2023-01-28T01:31:20;93284.91;;;1.79;70.86
61345;BME280;47216;42.656;23.232;2023-01-28T01:33:47;93288.88;;;1.75;70.56
61345;BME280;47216;42.656;23.232;2023-01-28T01:36:16;93286.59;;;1.60;70.50
61345;BME280;47216;42.656;23.232;2023-01-28T01:38:44;93284.97;;;1.66;70.90
61345;BME280;47216;42.656;23.232;2023-01-28T01:41:13;93288.53;;;1.72;70.71
61345;BME280;47216;42.656;23.232;2023-01-28T01:43:47;93288.91;;;1.68;71.10
61345;BME280;47216;42.656;23.232;2023-01-28T01:46:15;93298.72;;;1.46;70.29
61345;BME280;47216;42.656;23.232;2023-01-28T01:48:43;93290.19;;;1.01;71.82
61345;BME280;47216;42.656;23.232;2023-01-28T01:51:10;93292.72;;;1.14;72.21
61345;BME280;47216;42.656;23.232;2023-01-28T01:53:39;93289.81;;;1.04;72.19
61345;BME280;47216;42.656;23.232;2023-01-28T01:56:08;93287.63;;;1.08;72.46
61345;BME280;47216;42.656;23.232;2023-01-28T01:58:36;93283.84;;;1.10;72.63
61345;BME280;47216;42.656;23.232;2023-01-28T02:01:05;93291.94;;;1.20;72.46
61345;BME280;47216;42.656;23.232;2023-01-28T02:03:37;93291.56;;;1.03;72.69
61345;BME280;47216;42.656;23.232;2023-01-28T02:06:06;93289.66;;;0.86;73.56
61345;BME280;47216;42.656;23.232;2023-01-28T02:08:33;93294.81;;;0.79;73.29
61345;BME280;47216;42.656;23.232;2023-01-28T02:11:02;93296.38;;;0.87;73.47
61345;BME280;47216;42.656;23.232;2023-01-28T02:13:31;93296.34;;;1.00;73.71
61345;BME280;47216;42.656;23.232;2023-01-28T02:16:00;93302.25;;;1.07;73.38
61345;BME280;47216;42.656;23.232;2023-01-28T02:18:27;93295.50;;;1.13;73.53
61345;BME280;47216;42.656;23.232;2023-01-28T02:21:00;93290.34;;;1.19;73.12
61345;BME280;47216;42.656;23.232;2023-01-28T02:23:34;93299.88;;;1.05;72.55
61345;BME280;47216;42.656;23.232;2023-01-28T02:26:17;93293.53;;;1.08;72.76
61345;BME280;47216;42.656;23.232;2023-01-28T02:28:50;93303.63;;;1.03;73.06
61345;BME280;47216;42.656;23.232;2023-01-28T02:31:18;93306.88;;;0.65;73.22
61345;BME280;47216;42.656;23.232;2023-01-28T02:33:48;93299.34;;;0.83;73.14
61345;BME280;47216;42.656;23.232;2023-01-28T02:36:19;93298.72;;;0.95;73.13
61345;BME280;47216;42.656;23.232;2023-01-28T02:38:49;93297.72;;;0.96;72.96
61345;BME280;47216;42.656;23.232;2023-01-28T02:41:20;93298.72;;;0.95;73.02
61345;BME280;47216;42.656;23.232;2023-01-28T02:43:50;93309.16;;;1.00;72.91
61345;BME280;47216;42.656;23.232;2023-01-28T02:46:19;93303.63;;;1.03;72.98
61345;BME280;47216;42.656;23.232;2023-01-28T02:49:04;93299.88;;;1.05;72.82
61345;BME280;47216;42.656;23.232;2023-01-28T02:51:34;93301.03;;;1.10;72.51
61345;BME280;47216;42.656;23.232;2023-01-28T02:54:07;93303.41;;;1.11;72.49
61345;BME280;47216;42.656;23.232;2023-01-28T02:56:37;93299.44;;;1.15;72.41
61345;BME280;47216;42.656;23.232;2023-01-28T02:59:10;93297.09;;;1.14;72.26
61345;BME280;47216;42.656;23.232;2023-01-28T03:01:59;93301.63;;;1.18;72.35
61345;BME280;47216;42.656;23.232;2023-01-28T03:04:27;93315.56;;;1.29;72.21
61345;BME280;47216;42.656;23.232;2023-01-28T03:06:56;93309.03;;;1.40;71.69
61345;BME280;47216;42.656;23.232;2023-01-28T03:09:23;93310.56;;;1.47;71.55
61345;BME280;47216;42.656;23.232;2023-01-28T03:11:52;93311.16;;;1.50;71.68
61345;BME280;47216;42.656;23.232;2023-01-28T03:14:38;93315.72;;;1.41;71.36
61345;BME280;47216;42.656;23.232;2023-01-28T03:17:24;93315.22;;;1.25;70.86
61345;BME280;47216;42.656;23.232;2023-01-28T03:20:10;93314.03;;;1.21;71.61
61345;BME280;47216;42.656;23.232;2023-01-28T03:22:55;93312.84;;;1.17;72.09
61345;BME280;47216;42.656;23.232;2023-01-28T03:25:40;93323.16;;;1.11;71.87
61345;BME280;47216;42.656;23.232;2023-01-28T03:28:25;93313.53;;;0.93;71.75
61345;BME280;47216;42.656;23.232;2023-01-28T03:31:13;93317.66;;;0.94;72.06
61345;BME280;47216;42.656;23.232;2023-01-28T03:33:58;93321.59;;;1.03;72.06
61345;BME280;47216;42.656;23.232;2023-01-28T03:36:43;93317.22;;;1.10;71.85
61345;BME280;47216;42.656;23.232;2023-01-28T03:39:15;93318.66;;;0.93;71.75
61345;BME280;47216;42.656;23.232;2023-01-28T03:41:42;93323.22;;;0.91;71.85
61345;BME280;47216;42.656;23.232;2023-01-28T03:44:20;93318.69;;;0.86;72.12
61345;BME280;47216;42.656;23.232;2023-01-28T03:47:06;93320.06;;;0.89;72.51
61345;BME280;47216;42.656;23.232;2023-01-28T03:49:33;93322.81;;;0.94;72.19
61345;BME280;47216;42.656;23.232;2023-01-28T03:51:59;93320.03;;;1.02;71.94
61345;BME280;47216;42.656;23.232;2023-01-28T03:54:26;93330.66;;;1.05;71.56
61345;BME280;47216;42.656;23.232;2023-01-28T03:56:53;93333.06;;;0.87;71.94
61345;BME280;47216;42.656;23.232;2023-01-28T03:59:19;93331.09;;;0.96;72.01
61345;BME280;47216;42.656;23.232;2023-01-28T04:01:46;93327.75;;;0.95;71.71
61345;BME280;47216;42.656;23.232;2023-01-28T04:04:16;93337.25;;;0.55;72.11
61345;BME280;47216;42.656;23.232;2023-01-28T04:06:47;93334.88;;;0.60;72.51
61345;BME280;47216;42.656;23.232;2023-01-28T04:09:13;93337.84;;;0.70;72.70
61345;BME280;47216;42.656;23.232;2023-01-28T04:11:40;93339.44;;;0.58;72.80
61345;BME280;47216;42.656;23.232;2023-01-28T04:14:06;93339.25;;;0.39;72.67
61345;BME280;47216;42.656;23.232;2023-01-28T04:16:33;93344.75;;;0.36;72.58
61345;BME280;47216;42.656;23.232;2023-01-28T04:19:00;93345.94;;;0.40;72.68
61345;BME280;47216;42.656;23.232;2023-01-28T04:21:28;93344.75;;;0.50;73.07
61345;BME280;47216;42.656;23.232;2023-01-28T04:23:54;93353.63;;;0.27;73.20
61345;BME280;47216;42.656;23.232;2023-01-28T04:26:21;93354.03;;;0.24;73.49
61345;BME280;47216;42.656;23.232;2023-01-28T04:28:47;93359.75;;;0.26;73.93
61345;BME280;47216;42.656;23.232;2023-01-28T04:31:14;93355.41;;;0.33;74.13
61345;BME280;47216;42.656;23.232;2023-01-28T04:33:40;93363.50;;;0.37;73.77
61345;BME280;47216;42.656;23.232;2023-01-28T04:36:07;93358.59;;;0.49;73.63
61345;BME280;47216;42.656;23.232;2023-01-28T04:38:35;93357.97;;;0.60;73.14
61345;BME280;47216;42.656;23.232;2023-01-28T04:41:02;93359.94;;;0.71;73.18
61345;BME280;47216;42.656;23.232;2023-01-28T04:43:28;93365.06;;;0.84;72.76
61345;BME280;47216;42.656;23.232;2023-01-28T04:45:55;93373.75;;;0.90;73.06
61345;BME280;47216;42.656;23.232;2023-01-28T04:48:21;93374.53;;;0.84;71.50
61345;BME280;47216;42.656;23.232;2023-01-28T04:50:48;93373.34;;;0.60;72.21
61345;BME280;47216;42.656;23.232;2023-01-28T04:53:14;93373.16;;;0.68;71.98
61345;BME280;47216;42.656;23.232;2023-01-28T04:55:43;93378.09;;;0.83;72.16
61345;BME280;47216;42.656;23.232;2023-01-28T04:58:09;93379.25;;;0.94;72.03
61345;BME280;47216;42.656;23.232;2023-01-28T05:00:36;93380.44;;;1.04;71.85
61345;BME280;47216;42.656;23.232;2023-01-28T05:03:02;93384.97;;;1.09;71.40
61345;BME280;47216;42.656;23.232;2023-01-28T05:05:29;93387.75;;;0.88;71.34
61345;BME280;47216;42.656;23.232;2023-01-28T05:07:56;93386.56;;;0.97;71.34
61345;BME280;47216;42.656;23.232;2023-01-28T05:10:23;93387.94;;;1.06;71.36
61345;BME280;47216;42.656;23.232;2023-01-28T05:12:51;93390.28;;;1.14;70.92
61345;BME280;47216;42.656;23.232;2023-01-28T05:15:18;93393.66;;;1.08;70.71
61345;BME280;47216;42.656;23.232;2023-01-28T05:17:45;93389.53;;;1.07;71.00
61345;BME280;47216;42.656;23.232;2023-01-28T05:20:12;93404.56;;;0.90;70.70
61345;BME280;47216;42.656;23.232;2023-01-28T05:22:39;93407.69;;;0.99;70.78
61345;BME280;47216;42.656;23.232;2023-01-28T05:25:06;93400.19;;;1.04;70.86
61345;BME280;47216;42.656;23.232;2023-01-28T05:27:33;93406.09;;;1.11;70.92
61345;BME280;47216;42.656;23.232;2023-01-28T05:30:01;93399.78;;;1.20;70.53
61345;BME280;47216;42.656;23.232;2023-01-28T05:32:27;93409.63;;;1.30;70.65
61345;BME280;47216;42.656;23.232;2023-01-28T05:34:54;93398.53;;;1.36;70.51
61345;BME280;47216;42.656;23.232;2023-01-28T05:37:20;93406.47;;;1.28;69.76
61345;BME280;47216;42.656;23.232;2023-01-28T05:39:47;93408.03;;;1.29;69.85
61345;BME280;47216;42.656;23.232;2023-01-28T05:42:14;93414.94;;;1.42;70.27
61345;BME280;47216;42.656;23.232;2023-01-28T05:44:41;93413.31;;;1.47;70.21
61345;BME280;47216;42.656;23.232;2023-01-28T05:47:09;93416.28;;;1.51;69.54
61345;BME280;47216;42.656;23.232;2023-01-28T05:49:36;93421.03;;;1.41;69.72
61345;BME280;47216;42.656;23.232;2023-01-28T05:52:02;93417.91;;;1.39;69.59
61345;BME280;47216;42.656;23.232;2023-01-28T05:54:29;93420.66;;;1.44;69.33
61345;BME280;47216;42.656;23.232;2023-01-28T05:56:55;93415.91;;;1.41;69.38
61345;BME280;47216;42.656;23.232;2023-01-28T05:59:22;93425.63;;;1.25;69.71
61345;BME280;47216;42.656;23.232;2023-01-28T06:01:48;93420.75;;;0.97;70.13
61345;BME280;47216;42.656;23.232;2023-01-28T06:04:16;93425.06;;;0.97;70.39
61345;BME280;47216;42.656;23.232;2023-01-28T06:06:44;93427.44;;;0.92;70.41
61345;BME280;47216;42.656;23.232;2023-01-28T06:09:10;93431.59;;;0.93;71.05
61345;BME280;47216;42.656;23.232;2023-01-28T06:11:37;93441.84;;;0.66;71.45
61345;BME280;47216;42.656;23.232;2023-01-28T06:14:04;93438.88;;;0.56;71.95
61345;BME280;47216;42.656;23.232;2023-01-28T06:16:30;93446.38;;;0.64;72.19
61345;BME280;47216;42.656;23.232;2023-01-28T06:18:57;93448.19;;;0.77;72.07
61345;BME280;47216;42.656;23.232;2023-01-28T06:21:25;93451.72;;;0.62;72.20
61345;BME280;47216;42.656;23.232;2023-01-28T06:23:51;93459.03;;;0.72;72.27
61345;BME280;47216;42.656;23.232;2023-01-28T06:26:18;93462.97;;;0.81;72.33
61345;BME280;47216;42.656;23.232;2023-01-28T06:28:44;93457.84;;;0.88;71.78
61345;BME280;47216;42.656;23.232;2023-01-28T06:31:11;93459.84;;;0.93;71.49
61345;BME280;47216;42.656;23.232;2023-01-28T06:33:38;93465.94;;;1.05;71.38
61345;BME280;47216;42.656;23.232;2023-01-28T06:36:05;93465.56;;;0.95;70.90
61345;BME280;47216;42.656;23.232;2023-01-28T06:38:33;93473.63;;;0.92;71.06
61345;BME280;47216;42.656;23.232;2023-01-28T06:40:59;93472.84;;;0.98;71.09
61345;BME280;47216;42.656;23.232;2023-01-28T06:43:26;93484.91;;;1.04;71.08
61345;BME280;47216;42.656;23.232;2023-01-28T06:45:54;93482.34;;;0.97;71.23
61345;BME280;47216;42.656;23.232;2023-01-28T06:48:21;93489.84;;;1.12;70.81
61345;BME280;47216;42.656;23.232;2023-01-28T06:50:48;93494.19;;;1.18;70.69
61345;BME280;47216;42.656;23.232;2023-01-28T06:53:15;93502.09;;;1.23;70.48
61345;BME280;47216;42.656;23.232;2023-01-28T06:55:43;93504.66;;;1.23;69.68
61345;BME280;47216;42.656;23.232;2023-01-28T06:58:09;93501.69;;;1.26;70.00
61345;BME280;47216;42.656;23.232;2023-01-28T07:00:36;93498.91;;;1.35;70.51
61345;BME280;47216;42.656;23.232;2023-01-28T07:03:03;93499.50;;;1.37;69.91
61345;BME280;47216;42.656;23.232;2023-01-28T07:05:30;93511.16;;;1.33;69.95
61345;BME280;47216;42.656;23.232;2023-01-28T07:07:56;93513.31;;;0.96;70.47
61345;BME280;47216;42.656;23.232;2023-01-28T07:10:23;93514.31;;;1.08;70.99
61345;BME280;47216;42.656;23.232;2023-01-28T07:12:51;93517.50;;;1.23;72.00
61345;BME280;47216;42.656;23.232;2023-01-28T07:15:17;93527.75;;;1.37;71.45
61345;BME280;47216;42.656;23.232;2023-01-28T07:17:44;93528.94;;;1.41;70.12
61345;BME280;47216;42.656;23.232;2023-01-28T07:20:11;93529.72;;;1.48;70.57
61345;BME280;47216;42.656;23.232;2023-01-28T07:22:39;93530.09;;;1.58;70.06
61345;BME280;47216;42.656;23.232;2023-01-28T07:25:06;93529.50;;;1.63;69.92
61345;BME280;47216;42.656;23.232;2023-01-28T07:27:33;93530.47;;;1.68;69.26
61345;BME280;47216;42.656;23.232;2023-01-28T07:30:01;93529.09;;;1.66;68.85
61345;BME280;47216;42.656;23.232;2023-01-28T07:32:27;93542.16;;;1.51;69.55
61345;BME280;47216;42.656;23.232;2023-01-28T07:34:54;93544.75;;;1.51;69.10
61345;BME280;47216;42.656;23.232;2023-01-28T07:37:21;93537.63;;;1.53;69.72
61345;BME280;47216;42.656;23.232;2023-01-28T07:39:47;93549.09;;;1.57;69.33
61345;BME280;47216;42.656;23.232;2023-01-28T07:42:14;93546.91;;;1.54;69.47
61345;BME280;47216;42.656;23.232;2023-01-28T07:44:42;93545.53;;;1.45;69.35
61345;BME280;47216;42.656;23.232;2023-01-28T07:47:10;93548.50;;;1.49;69.43
61345;BME280;47216;42.656;23.232;2023-01-28T07:49:36;93549.09;;;1.57;69.32
61345;BME280;47216;42.656;23.232;2023-01-28T07:52:04;93548.69;;;1.67;69.73
61345;BME280;47216;42.656;23.232;2023-01-28T07:54:30;93547.84;;;1.80;69.73
61345;BME280;47216;42.656;23.232;2023-01-28T07:56:57;93556.16;;;1.88;68.92
61345;BME280;47216;42.656;23.232;2023-01-28T07:59:23;93556.75;;;1.91;68.48
61345;BME280;47216;42.656;23.232;2023-01-28T08:01:50;93558.72;;;1.95;68.49
61345;BME280;47216;42.656;23.232;2023-01-28T08:04:18;93561.28;;;1.95;67.95
61345;BME280;47216;42.656;23.232;2023-01-28T08:06:45;93562.47;;;1.99;68.74
61345;BME280;47216;42.656;23.232;2023-01-28T08:09:11;93559.28;;;2.04;68.06
61345;BME280;47216;42.656;23.232;2023-01-28T08:11:38;93572.91;;;2.11;68.58
61345;BME280;47216;42.656;23.232;2023-01-28T08:14:04;93574.88;;;2.16;68.66
61345;BME280;47216;42.656;23.232;2023-01-28T08:16:31;93581.41;;;2.25;68.26
61345;BME280;47216;42.656;23.232;2023-01-28T08:18:58;93577.44;;;2.29;67.29
61345;BME280;47216;42.656;23.232;2023-01-28T08:21:26;93582.97;;;2.26;67.35
61345;BME280;47216;42.656;23.232;2023-01-28T08:23:52;93576.41;;;2.30;66.43
61345;BME280;47216;42.656;23.232;2023-01-28T08:26:20;93583.94;;;2.31;66.19
61345;BME280;47216;42.656;23.232;2023-01-28T08:28:47;93583.34;;;2.36;66.08
61345;BME280;47216;42.656;23.232;2023-01-28T08:31:14;93587.66;;;2.36;66.28
61345;BME280;47216;42.656;23.232;2023-01-28T08:33:40;93582.94;;;2.39;65.71
61345;BME280;47216;42.656;23.232;2023-01-28T08:36:07;93577.78;;;2.39;66.52
61345;BME280;47216;42.656;23.232;2023-01-28T08:38:35;93579.75;;;2.37;66.46
61345;BME280;47216;42.656;23.232;2023-01-28T08:41:01;93583.13;;;2.31;66.16
61345;BME280;47216;42.656;23.232;2023-01-28T08:43:28;93580.59;;;2.24;66.34
61345;BME280;47216;42.656;23.232;2023-01-28T08:45:55;93593.28;;;2.13;66.79
61345;BME280;47216;42.656;23.232;2023-01-28T08:48:21;93583.41;;;2.09;66.40
61345;BME280;47216;42.656;23.232;2023-01-28T08:50:48;93579.84;;;2.10;66.77
61345;BME280;47216;42.656;23.232;2023-01-28T08:53:15;93588.19;;;1.99;66.88
61345;BME280;47216;42.656;23.232;2023-01-28T08:55:44;93594.91;;;1.87;67.43
61345;BME280;47216;42.656;23.232;2023-01-28T08:58:11;93591.56;;;1.73;67.21
61345;BME280;47216;42.656;23.232;2023-01-28T09:00:38;93590.19;;;1.71;67.61
61345;BME280;47216;42.656;23.232;2023-01-28T09:03:05;93589.38;;;1.77;68.19
61345;BME280;47216;42.656;23.232;2023-01-28T09:05:32;93592.56;;;1.79;68.54
61345;BME280;47216;42.656;23.232;2023-01-28T09:07:59;93592.38;;;1.74;68.42
61345;BME280;47216;42.656;23.232;2023-01-28T09:10:26;93587.19;;;1.87;68.51
61345;BME280;47216;42.656;23.232;2023-01-28T09:12:54;93583.81;;;1.93;68.11
61345;BME280;47216;42.656;23.232;2023-01-28T09:15:21;93588.19;;;1.99;67.92
61345;BME280;47216;42.656;23.232;2023-01-28T09:17:47;93590.16;;;2.04;68.28
61345;BME280;47216;42.656;23.232;2023-01-28T09:20:14;93589.38;;;2.03;68.41
61345;BME280;47216;42.656;23.232;2023-01-28T09:22:40;93596.91;;;1.85;67.97
61345;BME280;47216;42.656;23.232;2023-01-28T09:25:07;93596.50;;;1.88;68.57
61345;BME280;47216;42.656;23.232;2023-01-28T09:27:34;93597.88;;;1.91;67.81
61345;BME280;47216;42.656;23.232;2023-01-28T09:30:02;93598.88;;;1.76;68.67
61345;BME280;47216;42.656;23.232;2023-01-28T09:32:29;93595.31;;;1.84;69.06
61345;BME280;47216;42.656;23.232;2023-01-28T09:34:55;93594.13;;;1.80;68.90
61345;BME280;47216;42.656;23.232;2023-01-28T09:37:22;93597.47;;;1.87;68.95
61345;BME280;47216;42.656;23.232;2023-01-28T09:39:48;93596.50;;;1.95;69.12
61345;BME280;47216;42.656;23.232;2023-01-28T09:42:19;93592.94;;;1.82;69.42
61345;BME280;47216;42.656;23.232;2023-01-28T09:44:52;93592.56;;;1.85;68.86
61345;BME280;47216;42.656;23.232;2023-01-28T09:47:24;93589.19;;;1.85;69.16
61345;BME280;47216;42.656;23.232;2023-01-28T09:49:52;93588.00;;;1.94;69.41
61345;BME280;47216;42.656;23.232;2023-01-28T09:52:21;93590.53;;;2.07;69.68
61345;BME280;47216;42.656;23.232;2023-01-28T09:54:49;93594.13;;;1.86;69.18
61345;BME280;47216;42.656;23.232;2023-01-28T09:57:18;93593.69;;;1.96;69.16
61345;BME280;47216;42.656;23.232;2023-01-28T09:59:46;93591.34;;;1.95;68.82
61345;BME280;47216;42.656;23.232;2023-01-28T10:02:26;93587.78;;;2.02;69.04
61345;BME280;47216;42.656;23.232;2023-01-28T10:04:58;93583.63;;;2.01;68.75
61345;BME280;47216;42.656;23.232;2023-01-28T10:07:30;93594.28;;;1.98;69.01
61345;BME280;47216;42.656;23.232;2023-01-28T10:10:01;93586.22;;;1.88;69.43
61345;BME280;47216;42.656;23.232;2023-01-28T10:12:47;93584.84;;;1.65;69.38
61345;BME280;47216;42.656;23.232;2023-01-28T10:15:26;93585.84;;;1.58;69.46
61345;BME280;47216;42.656;23.232;2023-01-28T10:17:55;93592.75;;;1.64;70.41
61345;BME280;47216;42.656;23.232;2023-01-28T10:20:26;93580.66;;;1.84;70.20
61345;BME280;47216;42.656;23.232;2023-01-28T10:22:55;93583.41;;;1.96;70.01
61345;BME280;47216;42.656;23.232;2023-01-28T10:25:24;93586.41;;;1.93;69.83
61345;BME280;47216;42.656;23.232;2023-01-28T10:27:53;93581.84;;;1.95;69.08
61345;BME280;47216;42.656;23.232;2023-01-28T10:30:20;93587.81;;;1.62;69.81
61345;BME280;47216;42.656;23.232;2023-01-28T10:32:50;93591.78;;;1.58;70.33
61345;BME280;47216;42.656;23.232;2023-01-28T10:35:18;93587.41;;;1.59;70.46
61345;BME280;47216;42.656;23.232;2023-01-28T10:37:45;93584.66;;;1.67;70.38
61345;BME280;47216;42.656;23.232;2023-01-28T10:40:12;93588.19;;;1.66;70.83
61345;BME280;47216;42.656;23.232;2023-01-28T10:42:39;93595.13;;;1.72;70.38
61345;BME280;47216;42.656;23.232;2023-01-28T10:45:07;93589.56;;;1.75;70.45
61345;BME280;47216;42.656;23.232;2023-01-28T10:47:39;93590.19;;;1.77;70.00
61345;BME280;47216;42.656;23.232;2023-01-28T10:50:09;93588.97;;;1.80;70.83
61345;BME280;47216;42.656;23.232;2023-01-28T10:52:50;93588.00;;;1.67;70.18
61345;BME280;47216;42.656;23.232;2023-01-28T10:55:17;93586.25;;;1.48;70.87
61345;BME280;47216;42.656;23.232;2023-01-28T10:57:43;93582.28;;;1.65;71.23
61345;BME280;47216;42.656;23.232;2023-01-28T11:00:11;93582.28;;;1.65;70.65
61345;BME280;47216;42.656;23.232;2023-01-28T11:02:38;93582.69;;;1.76;73.66
61345;BME280;47216;42.656;23.232;2023-01-28T11:05:06;93589.81;;;1.74;71.22
61345;BME280;47216;42.656;23.232;2023-01-28T11:07:33;93585.84;;;1.64;70.62
61345;BME280;47216;42.656;23.232;2023-01-28T11:10:01;93594.31;;;1.38;71.69
61345;BME280;47216;42.656;23.232;2023-01-28T11:12:28;93587.22;;;1.40;71.19
61345;BME280;47216;42.656;23.232;2023-01-28T11:14:56;93585.25;;;1.62;71.29
61345;BME280;47216;42.656;23.232;2023-01-28T11:17:23;93585.84;;;1.64;71.08
61345;BME280;47216;42.656;23.232;2023-01-28T11:19:50;93589.97;;;1.85;70.10
61345;BME280;47216;42.656;23.232;2023-01-28T11:22:21;93583.03;;;1.99;70.11
61345;BME280;47216;42.656;23.232;2023-01-28T11:24:48;93581.84;;;2.08;69.29
61345;BME280;47216;42.656;23.232;2023-01-28T11:27:16;93581.41;;;2.25;68.94
61345;BME280;47216;42.656;23.232;2023-01-28T11:29:43;93579.75;;;2.37;68.66
61345;BME280;47216;42.656;23.232;2023-01-28T11:32:17;93582.13;;;2.45;69.17
61345;BME280;47216;42.656;23.232;2023-01-28T11:34:47;93576.59;;;2.35;67.61
61345;BME280;47216;42.656;23.232;2023-01-28T11:37:15;93584.09;;;2.43;67.27
61345;BME280;47216;42.656;23.232;2023-01-28T11:39:42;93584.09;;;2.50;68.31
61345;BME280;47216;42.656;23.232;2023-01-28T11:42:10;93580.88;;;2.61;67.28
61345;BME280;47216;42.656;23.232;2023-01-28T11:44:39;93573.78;;;2.57;67.15
61345;BME280;47216;42.656;23.232;2023-01-28T11:49:59;93571.72;;;2.65;68.01
61345;BME280;47216;42.656;23.232;2023-01-28T11:52:30;93574.09;;;2.67;66.81
61345;BME280;47216;42.656;23.232;2023-01-28T11:55:03;93568.72;;;2.30;67.63
61345;BME280;47216;42.656;23.232;2023-01-28T11:57:37;93571.84;;;2.39;67.58
61345;BME280;47216;42.656;23.232;2023-01-28T12:02:51;93567.28;;;2.47;67.69
61345;BME280;47216;42.656;23.232;2023-01-28T12:05:29;93574.13;;;2.60;67.13
61345;BME280;47216;42.656;23.232;2023-01-28T12:08:03;93576.16;;;2.45;67.70
61345;BME280;47216;42.656;23.232;2023-01-28T12:10:35;93573.97;;;2.48;67.76
61345;BME280;47216;42.656;23.232;2023-01-28T12:18:53;93573.81;;;2.82;66.86
61345;BME280;47216;42.656;23.232;2023-01-28T12:21:26;93569.66;;;2.87;67.40
61345;BME280;47216;42.656;23.232;2023-01-28T12:24:00;93571.56;;;2.99;66.44
61345;BME280;47216;42.656;23.232;2023-01-28T12:26:31;93568.72;;;3.07;65.95
61345;BME280;47216;42.656;23.232;2023-01-28T12:29:05;93566.25;;;2.93;65.27
61345;BME280;47216;42.656;23.232;2023-01-28T12:31:40;93579.56;;;2.84;65.99
61345;BME280;47216;42.656;23.232;2023-01-28T12:34:17;93578.03;;;2.76;64.94
61345;BME280;47216;42.656;23.232;2023-01-28T12:36:50;93580.03;;;2.67;65.63
61345;BME280;47216;42.656;23.232;2023-01-28T12:39:24;93574.94;;;2.54;65.91
61345;BME280;47216;42.656;23.232;2023-01-28T12:41:59;93576.25;;;2.25;67.03
61345;BME280;47216;42.656;23.232;2023-01-28T12:44:30;93586.69;;;2.37;66.96
61345;BME280;47216;42.656;23.232;2023-01-28T12:46:59;93589.63;;;2.40;67.53
61345;BME280;47216;42.656;23.232;2023-01-28T12:49:29;93587.63;;;2.56;68.52
61345;BME280;47216;42.656;23.232;2023-01-28T12:51:59;93598.31;;;2.59;67.20
61345;BME280;47216;42.656;23.232;2023-01-28T12:54:28;93595.56;;;2.47;66.70
61345;BME280;47216;42.656;23.232;2023-01-28T12:56:58;93598.06;;;2.61;66.64
61345;BME280;47216;42.656;23.232;2023-01-28T12:59:27;93598.44;;;2.71;66.69
61345;BME280;47216;42.656;23.232;2023-01-28T13:01:58;93599.03;;;2.73;66.68
61345;BME280;47216;42.656;23.232;2023-01-28T13:04:30;93594.25;;;2.77;66.84
61345;BME280;47216;42.656;23.232;2023-01-28T13:06:59;93596.38;;;2.86;66.79
61345;BME280;47216;42.656;23.232;2023-01-28T13:09:27;93607.66;;;2.92;65.99
61345;BME280;47216;42.656;23.232;2023-01-28T13:11:55;93604.53;;;2.83;65.96
61345;BME280;47216;42.656;23.232;2023-01-28T13:14:27;93605.69;;;2.87;65.49
61345;BME280;47216;42.656;23.232;2023-01-28T13:16:54;93611.66;;;2.81;65.30
61345;BME280;47216;42.656;23.232;2023-01-28T13:19:22;93609.34;;;2.66;66.42